createdAt,value
2023-03-29T00:00:14.481Z,98614.47
2023-03-29T00:02:43.581Z,98605.36
2023-03-29T00:05:13.197Z,98590.07
2023-03-29T00:07:42.469Z,98588.03
2023-03-29T00:10:12.676Z,98584.77
2023-03-29T00:12:41.844Z,98588.55
2023-03-29T00:15:11.432Z,98586.70
2023-03-29T00:17:40.357Z,98584.30
2023-03-29T00:20:10.345Z,98587.75
2023-03-29T00:22:42.004Z,98587.58
2023-03-29T00:25:11.134Z,98584.30
2023-03-29T00:27:40.248Z,98583.77
2023-03-29T00:30:10.040Z,98577.94
2023-03-29T00:32:39.271Z,98573.63
2023-03-29T00:35:09.040Z,98571.55
2023-03-29T00:37:40.806Z,98571.20
2023-03-29T00:40:15.833Z,98565.69
2023-03-29T00:42:50.445Z,98565.48
2023-03-29T00:45:22.702Z,98557.02
2023-03-29T00:47:52.716Z,98565.77
2023-03-29T00:50:25.755Z,98562.50
2023-03-29T00:52:56.209Z,98559.39
2023-03-29T00:55:25.418Z,98556.27
2023-03-29T00:57:55.677Z,98557.62
2023-03-29T01:00:26.641Z,98554.33
2023-03-29T01:02:59.616Z,98553.27
2023-03-29T01:05:30.933Z,98552.37
2023-03-29T01:08:00.621Z,98550.12
2023-03-29T01:10:31.027Z,98542.02
2023-03-29T01:13:01.490Z,98540.61
2023-03-29T01:15:30.319Z,98537.69
2023-03-29T01:18:01.863Z,98527.74
2023-03-29T01:20:38.730Z,98523.11
2023-03-29T01:23:13.885Z,98518.80
2023-03-29T01:25:45.419Z,98517.09
2023-03-29T01:28:14.536Z,98515.88
2023-03-29T01:30:44.000Z,98507.10
2023-03-29T01:33:13.304Z,98510.35
2023-03-29T01:35:43.565Z,98503.81
2023-03-29T01:38:13.610Z,98503.08
2023-03-29T01:40:42.442Z,98502.38
2023-03-29T01:43:14.952Z,98496.88
2023-03-29T01:45:44.482Z,98497.55
2023-03-29T01:48:14.955Z,98491.04
2023-03-29T01:50:44.496Z,98488.45
2023-03-29T01:53:15.221Z,98487.08
2023-03-29T01:55:44.352Z,98488.44
2023-03-29T01:58:13.375Z,98492.19
2023-03-29T02:00:42.278Z,98489.27
2023-03-29T02:03:11.508Z,98493.55
2023-03-29T02:05:41.034Z,98485.97
2023-03-29T02:08:10.902Z,98486.69
2023-03-29T02:10:39.667Z,98489.41
2023-03-29T02:13:08.580Z,98483.75
2023-03-29T02:15:37.368Z,98478.25
2023-03-29T02:18:06.815Z,98475.70
2023-03-29T02:20:38.740Z,98471.39
2023-03-29T02:23:08.832Z,98468.31
2023-03-29T02:25:38.520Z,98466.77
2023-03-29T02:28:07.286Z,98464.71
2023-03-29T02:30:37.131Z,98466.45
2023-03-29T02:33:07.797Z,98464.93
2023-03-29T02:35:38.520Z,98464.30
2023-03-29T02:38:10.444Z,98463.48
2023-03-29T02:40:40.190Z,98462.34
2023-03-29T02:43:09.873Z,98464.44
2023-03-29T02:45:38.987Z,98463.95
2023-03-29T02:48:09.200Z,98462.44
2023-03-29T02:50:38.319Z,98459.36
2023-03-29T02:53:08.755Z,98450.98
2023-03-29T02:55:38.985Z,98458.02
2023-03-29T02:58:08.465Z,98458.20
2023-03-29T03:00:38.307Z,98453.24
2023-03-29T03:03:07.980Z,98447.94
2023-03-29T03:05:37.421Z,98442.27
2023-03-29T03:08:08.247Z,98440.05
2023-03-29T03:10:37.199Z,98440.89
2023-03-29T03:13:06.130Z,98433.34
2023-03-29T03:15:35.785Z,98431.79
2023-03-29T03:18:04.914Z,98428.86
2023-03-29T03:20:34.713Z,98424.74
2023-03-29T03:23:04.096Z,98421.10
2023-03-29T03:25:33.054Z,98420.41
2023-03-29T03:28:02.511Z,98424.33
2023-03-29T03:30:31.549Z,98425.67
2023-03-29T03:33:19.230Z,98424.11
2023-03-29T03:36:17.079Z,98419.47
2023-03-29T03:38:46.112Z,98420.14
2023-03-29T03:41:14.950Z,98417.05
2023-03-29T03:43:45.994Z,98416.00
2023-03-29T03:46:15.210Z,98411.18
2023-03-29T03:48:45.353Z,98412.17
2023-03-29T03:51:29.242Z,98409.39
2023-03-29T03:53:58.027Z,98410.21
2023-03-29T03:56:36.208Z,98410.67
2023-03-29T03:59:13.187Z,98409.27
2023-03-29T04:02:02.323Z,98404.96
2023-03-29T04:04:31.302Z,98405.83
2023-03-29T04:07:05.899Z,98408.41
2023-03-29T04:09:42.186Z,98408.26
2023-03-29T04:12:22.031Z,98408.61
2023-03-29T04:14:51.680Z,98409.13
2023-03-29T04:17:24.296Z,98407.08
2023-03-29T04:20:13.730Z,98407.79
2023-03-29T04:22:42.921Z,98405.42
2023-03-29T04:25:12.203Z,98404.79
2023-03-29T04:27:49.983Z,98406.21
2023-03-29T04:30:35.663Z,98405.77
2023-03-29T04:33:33.551Z,98406.67
2023-03-29T04:36:03.231Z,98404.34
2023-03-29T04:38:36.085Z,98398.88
2023-03-29T04:41:05.769Z,98393.42
2023-03-29T04:43:47.612Z,98394.14
2023-03-29T04:46:25.497Z,98392.45
2023-03-29T04:49:32.920Z,98390.73
2023-03-29T04:52:01.956Z,98391.25
2023-03-29T04:54:32.232Z,98387.64
2023-03-29T04:57:23.958Z,98385.09
2023-03-29T05:00:15.558Z,98383.37
2023-03-29T05:02:59.511Z,98378.75
2023-03-29T05:05:29.020Z,98375.31
2023-03-29T05:14:10.878Z,98384.59
2023-03-29T05:22:36.316Z,98395.03
2023-03-29T05:25:06.023Z,98395.36
2023-03-29T05:27:35.018Z,98395.71
2023-03-29T05:30:11.693Z,98399.50
2023-03-29T05:32:52.803Z,98400.37
2023-03-29T05:35:26.294Z,98397.47
2023-03-29T05:37:56.233Z,98400.08
2023-03-29T05:40:26.197Z,98389.65
2023-03-29T05:43:15.429Z,98390.36
2023-03-29T05:45:44.420Z,98390.55
2023-03-29T05:48:13.776Z,98388.36
2023-03-29T05:50:46.179Z,98387.52
2023-03-29T05:53:15.376Z,98381.38
2023-03-29T05:55:45.326Z,98386.03
2023-03-29T05:58:15.575Z,98378.69
2023-03-29T06:00:49.777Z,98376.83
2023-03-29T06:03:31.120Z,98378.05
2023-03-29T06:06:02.282Z,98374.98
2023-03-29T06:08:31.551Z,98380.51
2023-03-29T06:11:17.577Z,98387.73
2023-03-29T06:14:09.098Z,98391.16
2023-03-29T06:16:43.188Z,98389.27
2023-03-29T06:19:12.637Z,98387.02
2023-03-29T06:21:42.123Z,98391.28
2023-03-29T06:24:11.857Z,98393.11
2023-03-29T06:26:46.376Z,98389.95
2023-03-29T06:29:15.627Z,98393.16
2023-03-29T06:31:45.396Z,98390.04
2023-03-29T06:34:28.156Z,98397.22
2023-03-29T06:37:24.600Z,98398.94
2023-03-29T06:40:01.046Z,98396.70
2023-03-29T06:42:36.902Z,98395.30
2023-03-29T06:45:40.833Z,98395.16
2023-03-29T06:48:15.151Z,98394.98
2023-03-29T06:50:44.004Z,98391.67
2023-03-29T06:53:16.886Z,98395.98
2023-03-29T06:55:48.541Z,98395.95
2023-03-29T06:58:40.743Z,98397.83
2023-03-29T07:01:38.847Z,98397.66
2023-03-29T07:04:15.748Z,98397.66
2023-03-29T07:07:05.992Z,98396.98
2023-03-29T07:09:36.442Z,98399.23
2023-03-29T07:12:26.338Z,98393.02
2023-03-29T07:14:58.391Z,98393.66
2023-03-29T07:17:30.967Z,98394.15
2023-03-29T07:19:59.751Z,98393.96
2023-03-29T07:22:47.196Z,98395.13
2023-03-29T07:25:17.147Z,98398.50
2023-03-29T07:27:46.389Z,98398.94
2023-03-29T07:30:16.528Z,98406.56
2023-03-29T07:32:46.398Z,98408.66
2023-03-29T07:35:27.257Z,98409.09
2023-03-29T07:37:57.227Z,98409.23
2023-03-29T07:40:27.111Z,98411.26
2023-03-29T07:42:58.715Z,98410.52
2023-03-29T07:45:29.631Z,98412.71
2023-03-29T07:48:03.349Z,98410.46
2023-03-29T07:50:46.698Z,98415.14
2023-03-29T07:53:17.268Z,98416.71
2023-03-29T07:55:49.055Z,98421.67
2023-03-29T07:58:36.464Z,98419.58
2023-03-29T08:01:06.202Z,98419.40
2023-03-29T08:03:53.873Z,98422.34
2023-03-29T08:06:26.529Z,98426.96
2023-03-29T08:08:55.748Z,98420.10
2023-03-29T08:11:24.589Z,98425.23
2023-03-29T08:14:05.146Z,98420.53
2023-03-29T08:16:57.169Z,98418.55
2023-03-29T08:19:26.188Z,98416.70
2023-03-29T08:22:02.862Z,98410.36
2023-03-29T08:24:40.757Z,98404.55
2023-03-29T08:27:09.834Z,98406.11
2023-03-29T08:29:38.635Z,98403.66
2023-03-29T08:32:07.955Z,98400.43
2023-03-29T08:34:36.942Z,98398.92
2023-03-29T08:37:18.022Z,98400.25
2023-03-29T08:39:48.623Z,98400.79
2023-03-29T08:42:50.254Z,98398.83
2023-03-29T08:45:21.142Z,98396.83
2023-03-29T08:47:51.618Z,98398.95
2023-03-29T08:50:21.550Z,98401.01
2023-03-29T08:52:51.517Z,98391.73
2023-03-29T08:55:44.444Z,98390.89
2023-03-29T08:58:41.930Z,98397.36
2023-03-29T09:01:11.426Z,98400.73
2023-03-29T09:03:51.763Z,98401.80
2023-03-29T09:06:30.051Z,98404.20
2023-03-29T09:09:07.895Z,98406.19
2023-03-29T09:11:40.652Z,98399.80
2023-03-29T09:14:13.845Z,98405.33
2023-03-29T09:16:44.947Z,98403.64
2023-03-29T09:19:16.842Z,98398.52
2023-03-29T09:21:47.455Z,98401.39
2023-03-29T09:24:29.974Z,98401.75
2023-03-29T09:27:08.499Z,98403.87
2023-03-29T09:29:45.047Z,98403.08
2023-03-29T09:32:17.743Z,98405.08
2023-03-29T09:34:48.498Z,98400.60
2023-03-29T09:37:22.523Z,98397.45
2023-03-29T09:39:53.150Z,98392.52
2023-03-29T09:42:22.568Z,98393.29
2023-03-29T09:44:52.612Z,98392.44
2023-03-29T09:47:26.229Z,98393.34
2023-03-29T09:49:56.956Z,98396.93
2023-03-29T09:52:25.786Z,98399.27
2023-03-29T09:55:05.815Z,98399.18
2023-03-29T09:57:52.870Z,98398.15
2023-03-29T10:00:22.370Z,98392.96
2023-03-29T10:02:54.627Z,98397.98
2023-03-29T10:05:27.319Z,98396.38
2023-03-29T10:07:56.153Z,98396.52
2023-03-29T10:10:26.359Z,98390.46
2023-03-29T10:12:55.554Z,98390.55
2023-03-29T10:15:29.680Z,98384.77
2023-03-29T10:18:00.340Z,98379.41
2023-03-29T10:20:29.281Z,98379.20
2023-03-29T10:22:59.034Z,98381.56
2023-03-29T10:25:28.705Z,98372.59
2023-03-29T10:27:58.071Z,98369.33
2023-03-29T10:30:28.309Z,98370.80
2023-03-29T10:32:58.882Z,98366.03
2023-03-29T10:35:30.737Z,98352.58
2023-03-29T10:38:00.110Z,98340.92
2023-03-29T10:40:30.648Z,98334.94
2023-03-29T10:43:03.114Z,98344.27
2023-03-29T10:45:32.956Z,98347.59
2023-03-29T10:48:01.832Z,98351.15
2023-03-29T10:50:34.569Z,98349.82
2023-03-29T10:53:04.172Z,98356.85
2023-03-29T10:55:34.907Z,98346.14
2023-03-29T10:58:06.462Z,98339.80
2023-03-29T11:00:37.835Z,98343.77
2023-03-29T11:03:11.614Z,98344.69
2023-03-29T11:05:42.322Z,98343.34
2023-03-29T11:08:15.861Z,98342.58
2023-03-29T11:10:46.726Z,98347.34
2023-03-29T11:13:17.690Z,98346.08
2023-03-29T11:15:50.688Z,98345.32
2023-03-29T11:18:33.084Z,98355.01
2023-03-29T11:21:04.567Z,98352.56
2023-03-29T11:23:39.858Z,98346.58
2023-03-29T11:26:12.550Z,98347.98
2023-03-29T11:28:42.253Z,98347.48
2023-03-29T11:31:13.274Z,98345.67
2023-03-29T11:33:46.697Z,98348.34
2023-03-29T11:36:18.430Z,98342.59
2023-03-29T11:38:51.485Z,98340.74
2023-03-29T11:41:23.327Z,98346.65
2023-03-29T11:43:54.973Z,98338.98
2023-03-29T11:46:24.972Z,98332.82
2023-03-29T11:48:55.478Z,98328.66
2023-03-29T11:51:25.097Z,98332.23
2023-03-29T11:53:57.273Z,98327.57
2023-03-29T11:56:29.402Z,98325.55
2023-03-29T11:59:01.289Z,98328.85
2023-03-29T12:01:31.570Z,98327.78
2023-03-29T12:04:01.696Z,98329.49
2023-03-29T12:06:32.494Z,98327.98
2023-03-29T12:09:02.439Z,98327.33
2023-03-29T12:11:31.934Z,98323.13
2023-03-29T12:14:02.512Z,98314.98
2023-03-29T12:16:33.689Z,98313.90
2023-03-29T12:19:04.215Z,98299.16
2023-03-29T12:21:33.032Z,98299.48
2023-03-29T12:24:02.272Z,98295.47
2023-03-29T12:26:45.887Z,98299.02
2023-03-29T12:29:19.158Z,98292.59
2023-03-29T12:31:49.436Z,98299.52
2023-03-29T12:34:22.223Z,98300.06
2023-03-29T12:37:12.187Z,98294.42
2023-03-29T12:40:04.161Z,98284.91
2023-03-29T12:42:52.720Z,98289.13
2023-03-29T12:45:48.583Z,98293.41
2023-03-29T12:48:18.709Z,98288.85
2023-03-29T12:50:49.354Z,98279.44
2023-03-29T12:53:20.983Z,98278.96
2023-03-29T12:55:51.526Z,98279.84
2023-03-29T12:58:26.537Z,98274.98
2023-03-29T13:01:05.954Z,98268.45
2023-03-29T13:03:42.553Z,98264.42
2023-03-29T13:06:13.266Z,98264.80
2023-03-29T13:08:43.259Z,98255.95
2023-03-29T13:11:14.954Z,98262.29
2023-03-29T13:13:44.159Z,98251.17
2023-03-29T13:16:16.438Z,98246.91
2023-03-29T13:22:47.874Z,98237.09
2023-03-29T13:25:19.873Z,98235.59
2023-03-29T13:27:50.484Z,98234.86
2023-03-29T13:30:33.128Z,98229.39
2023-03-29T13:33:15.335Z,98223.63
2023-03-29T13:35:46.837Z,98227.66
2023-03-29T13:38:18.557Z,98229.73
2023-03-29T13:40:48.520Z,98230.66
2023-03-29T13:43:25.535Z,98229.33
2023-03-29T13:46:05.847Z,98220.83
2023-03-29T13:48:45.385Z,98214.23
2023-03-29T13:51:22.357Z,98214.70
2023-03-29T13:53:52.558Z,98215.56
2023-03-29T13:56:24.610Z,98209.26
2023-03-29T13:58:54.490Z,98211.09
2023-03-29T14:01:24.727Z,98206.99
2023-03-29T14:03:53.861Z,98205.46
2023-03-29T14:06:24.530Z,98213.29
2023-03-29T14:08:53.445Z,98217.33
2023-03-29T14:11:23.275Z,98217.38
2023-03-29T14:13:54.566Z,98211.48
2023-03-29T14:16:23.558Z,98210.98
2023-03-29T14:18:52.837Z,98209.56
2023-03-29T14:21:21.961Z,98211.40
2023-03-29T14:23:55.185Z,98208.54
2023-03-29T14:26:24.688Z,98204.15
2023-03-29T14:28:54.036Z,98199.95
2023-03-29T14:31:23.677Z,98197.25
2023-03-29T14:33:54.357Z,98197.08
2023-03-29T14:36:23.505Z,98197.54
2023-03-29T14:38:53.261Z,98197.96
2023-03-29T14:41:24.283Z,98186.36
2023-03-29T14:43:53.340Z,98185.73
2023-03-29T14:46:22.290Z,98178.75
2023-03-29T14:48:51.183Z,98177.12
2023-03-29T14:51:20.420Z,98178.06
2023-03-29T14:53:49.372Z,98177.33
2023-03-29T14:56:24.030Z,98172.73
2023-03-29T14:58:54.027Z,98167.87
2023-03-29T15:01:23.896Z,98158.98
2023-03-29T15:03:54.945Z,98155.43
2023-03-29T15:06:24.753Z,98149.36
2023-03-29T15:09:04.355Z,98142.05
2023-03-29T15:11:35.109Z,98134.80
2023-03-29T15:14:05.266Z,98130.14
2023-03-29T15:16:36.496Z,98121.30
2023-03-29T15:19:05.826Z,98129.48
2023-03-29T15:21:35.874Z,98133.41
2023-03-29T15:24:19.070Z,98133.91
2023-03-29T15:26:59.650Z,98136.67
2023-03-29T15:29:38.468Z,98134.71
2023-03-29T15:32:07.975Z,98131.88
2023-03-29T15:34:40.195Z,98132.37
2023-03-29T15:37:12.278Z,98129.11
2023-03-29T15:39:45.476Z,98128.48
2023-03-29T15:42:15.815Z,98114.78
2023-03-29T15:44:47.249Z,98117.63
2023-03-29T15:47:16.002Z,98122.11
2023-03-29T15:49:44.855Z,98122.73
2023-03-29T15:52:13.792Z,98119.36
2023-03-29T15:54:43.981Z,98113.21
2023-03-29T15:57:13.945Z,98110.30
2023-03-29T15:59:43.053Z,98110.05
2023-03-29T16:02:13.963Z,98107.73
2023-03-29T16:04:42.810Z,98100.61
2023-03-29T16:07:14.262Z,98101.36
2023-03-29T16:09:43.277Z,98101.65
2023-03-29T16:12:12.270Z,98098.23
2023-03-29T16:14:43.023Z,98095.64
2023-03-29T16:17:16.094Z,98092.81
2023-03-29T16:19:45.301Z,98094.87
2023-03-29T16:22:14.334Z,98090.98
2023-03-29T16:24:43.858Z,98091.24
2023-03-29T16:27:12.762Z,98088.39
2023-03-29T16:29:41.697Z,98089.70
2023-03-29T16:32:11.722Z,98085.64
2023-03-29T16:34:41.520Z,98080.39
2023-03-29T16:37:10.970Z,98079.84
2023-03-29T16:39:40.129Z,98077.88
2023-03-29T16:42:09.554Z,98078.75
2023-03-29T16:44:39.213Z,98080.52
2023-03-29T16:47:08.088Z,98079.50
2023-03-29T16:49:39.931Z,98077.29
2023-03-29T16:52:11.545Z,98071.77
2023-03-29T16:54:40.485Z,98069.88
2023-03-29T16:57:10.245Z,98075.99
2023-03-29T16:59:39.142Z,98077.41
2023-03-29T17:02:08.005Z,98074.54
2023-03-29T17:04:37.159Z,98069.16
2023-03-29T17:07:06.743Z,98068.13
2023-03-29T17:09:35.735Z,98065.87
2023-03-29T17:12:04.936Z,98059.77
2023-03-29T17:14:34.000Z,98066.22
2023-03-29T17:17:02.776Z,98069.20
2023-03-29T17:19:31.820Z,98071.26
2023-03-29T17:22:00.790Z,98067.94
2023-03-29T17:24:30.752Z,98055.31
2023-03-29T17:26:59.562Z,98056.59
2023-03-29T17:29:28.504Z,98061.45
2023-03-29T17:31:57.291Z,98054.50
2023-03-29T17:34:28.840Z,98063.91
2023-03-29T17:36:57.746Z,98062.00
2023-03-29T17:39:27.209Z,98062.90
2023-03-29T17:41:56.040Z,98048.33
2023-03-29T17:44:25.074Z,98053.23
2023-03-29T17:46:54.057Z,98051.42
2023-03-29T17:49:23.211Z,98045.33
2023-03-29T17:51:52.029Z,98053.96
2023-03-29T17:54:21.608Z,98048.48
2023-03-29T17:56:50.573Z,98033.94
2023-03-29T17:59:19.638Z,98043.04
2023-03-29T18:01:48.400Z,98048.30
2023-03-29T18:04:17.587Z,98039.23
2023-03-29T18:06:46.675Z,98039.12
2023-03-29T18:09:15.475Z,98035.40
2023-03-29T18:11:44.268Z,98038.30
2023-03-29T18:14:13.133Z,98035.30
2023-03-29T18:16:42.381Z,98041.37
2023-03-29T18:19:13.539Z,98040.78
2023-03-29T18:21:42.304Z,98041.15
2023-03-29T18:24:11.090Z,98034.83
2023-03-29T18:26:40.325Z,98050.40
2023-03-29T18:29:09.929Z,98049.19
2023-03-29T18:31:40.577Z,98051.75
2023-03-29T18:34:09.570Z,98043.63
2023-03-29T18:36:38.501Z,98042.87
2023-03-29T18:39:07.465Z,98045.11
2023-03-29T18:41:37.170Z,98041.98
2023-03-29T18:44:07.482Z,98038.89
2023-03-29T18:46:36.360Z,98037.52
2023-03-29T18:49:05.251Z,98036.49
2023-03-29T18:51:34.840Z,98035.13
2023-03-29T18:54:06.386Z,98030.52
2023-03-29T18:56:35.384Z,98021.89
2023-03-29T18:59:06.318Z,98029.27
2023-03-29T19:01:35.915Z,98036.34
2023-03-29T19:04:05.250Z,98034.04
2023-03-29T19:06:34.014Z,98042.15
2023-03-29T19:09:05.223Z,98041.11
2023-03-29T19:11:36.052Z,98052.90
2023-03-29T19:14:08.330Z,98050.30
2023-03-29T19:16:37.660Z,98052.39
2023-03-29T19:19:07.182Z,98051.33
2023-03-29T19:21:38.491Z,98061.98
2023-03-29T19:24:09.244Z,98057.84
2023-03-29T19:26:41.877Z,98055.96
2023-03-29T19:29:10.714Z,98055.61
2023-03-29T19:31:39.807Z,98049.55
2023-03-29T19:34:09.877Z,98049.54
2023-03-29T19:36:38.636Z,98041.70
2023-03-29T19:39:08.119Z,98043.48
2023-03-29T19:41:36.982Z,98057.16
2023-03-29T19:44:06.708Z,98045.88
2023-03-29T19:46:35.703Z,98042.33
2023-03-29T19:49:05.820Z,98047.00
2023-03-29T19:51:35.008Z,98046.61
2023-03-29T19:54:03.713Z,98041.25
2023-03-29T19:56:33.039Z,98031.71
2023-03-29T19:59:01.984Z,98025.16
2023-03-29T20:01:32.359Z,98018.75
2023-03-29T20:04:01.697Z,98019.73
2023-03-29T20:06:30.724Z,98009.94
2023-03-29T20:08:59.471Z,98004.77
2023-03-29T20:11:28.910Z,97994.45
2023-03-29T20:13:58.170Z,97989.50
2023-03-29T20:16:27.142Z,97983.73
2023-03-29T20:18:59.241Z,97978.49
2023-03-29T20:21:28.644Z,97968.81
2023-03-29T20:23:57.601Z,97955.70
2023-03-29T20:26:28.180Z,97956.93
2023-03-29T20:28:57.537Z,97954.30
2023-03-29T20:31:27.346Z,97948.56
2023-03-29T20:33:57.987Z,97948.13
2023-03-29T20:36:30.532Z,97948.90
2023-03-29T20:39:00.226Z,97940.72
2023-03-29T20:41:29.386Z,97942.48
2023-03-29T20:44:00.054Z,97938.03
2023-03-29T20:46:33.439Z,97935.98
2023-03-29T20:49:03.094Z,97932.54
2023-03-29T20:51:32.421Z,97936.70
2023-03-29T20:54:04.450Z,97934.88
2023-03-29T20:56:34.383Z,97938.25
2023-03-29T20:59:04.061Z,97934.95
2023-03-29T21:01:34.811Z,97934.58
2023-03-29T21:04:03.833Z,97931.69
2023-03-29T21:06:33.433Z,97932.09
2023-03-29T21:09:04.952Z,97930.15
2023-03-29T21:11:33.798Z,97922.85
2023-03-29T21:14:04.095Z,97921.60
2023-03-29T21:16:33.898Z,97922.06
2023-03-29T21:19:03.062Z,97915.34
2023-03-29T21:21:33.706Z,97918.97
2023-03-29T21:24:02.643Z,97912.08
2023-03-29T21:26:31.484Z,97911.73
2023-03-29T21:29:00.366Z,97898.41
2023-03-29T21:31:29.283Z,97896.33
2023-03-29T21:33:58.407Z,97887.89
2023-03-29T21:36:32.758Z,97885.42
2023-03-29T21:39:05.940Z,97881.65
2023-03-29T21:41:34.816Z,97879.73
2023-03-29T21:44:03.789Z,97874.23
2023-03-29T21:46:32.971Z,97878.73
2023-03-29T21:49:01.779Z,97878.96
2023-03-29T21:51:32.763Z,97878.88
2023-03-29T21:54:02.221Z,97877.81
2023-03-29T21:56:31.802Z,97870.04
2023-03-29T21:59:00.652Z,97869.58
2023-03-29T22:01:29.815Z,97870.02
2023-03-29T22:04:04.641Z,97866.60
2023-03-29T22:06:33.555Z,97866.80
2023-03-29T22:09:03.040Z,97855.32
2023-03-29T22:11:35.471Z,97847.34
2023-03-29T22:14:04.451Z,97836.60
2023-03-29T22:16:33.613Z,97833.06
2023-03-29T22:19:02.759Z,97832.14
2023-03-29T22:21:32.224Z,97832.38
2023-03-29T22:24:01.485Z,97839.72
2023-03-29T22:26:30.915Z,97839.77
2023-03-29T22:29:01.331Z,97845.20
2023-03-29T22:31:31.285Z,97846.45
2023-03-29T22:34:02.002Z,97849.30
2023-03-29T22:36:31.892Z,97843.55
2023-03-29T22:39:01.076Z,97838.84
2023-03-29T22:41:29.897Z,97835.91
2023-03-29T22:43:59.759Z,97840.38
2023-03-29T22:46:29.273Z,97838.52
2023-03-29T22:48:59.460Z,97847.60
2023-03-29T22:51:29.370Z,97845.30
2023-03-29T22:53:59.432Z,97840.92
2023-03-29T22:56:31.629Z,97838.23
2023-03-29T22:59:01.961Z,97839.38
2023-03-29T23:01:32.559Z,97835.09
2023-03-29T23:04:02.160Z,97829.52
2023-03-29T23:06:32.397Z,97829.63
2023-03-29T23:09:01.633Z,97833.52
2023-03-29T23:11:30.931Z,97830.57
2023-03-29T23:14:01.720Z,97827.71
2023-03-29T23:16:30.811Z,97821.23
2023-03-29T23:19:00.391Z,97816.52
2023-03-29T23:21:29.146Z,97811.05
2023-03-29T23:23:58.274Z,97813.77
2023-03-29T23:26:27.698Z,97810.14
2023-03-29T23:28:57.417Z,97801.70
2023-03-29T23:31:26.289Z,97799.13
2023-03-29T23:33:55.135Z,97793.26
2023-03-29T23:36:27.311Z,97789.79
2023-03-29T23:38:56.154Z,97789.27
2023-03-29T23:41:28.234Z,97788.75
2023-03-29T23:43:57.507Z,97783.71
2023-03-29T23:46:26.470Z,97780.79
2023-03-29T23:48:55.695Z,97774.23
2023-03-29T23:51:28.913Z,97766.98
2023-03-29T23:53:57.795Z,97767.47
2023-03-29T23:56:26.681Z,97771.13
2023-03-29T23:58:55.510Z,97772.10
